Terminal Aerodrome Forecast
Issued by NWS

Home | Current Version | Previous Version | Text Only | Print | Product List | Glossary On
Versions: 1 2 3 4 5 6 7 8 9 10 11 12 13 14 15 16 17 18 19 20 21 22 23 24 25 26 27 28 29 30 31 32 33 34 35 36 37 38 39 40 41 42 43 44 45
000
FTAK31 PAFA 281740
TAFASC
TAF
PASC 281740Z 2818/0118 24008KT P6SM OVC050
     FM282300 22020KT 3SM -SN BKN025
     FM010200 25040G60KT 1/4SM SN BLSN OVC004
     FM011200 25040G60KT 1/4SM -SHSN BLSN BKN007 OVC015=

USA.gov is the U.S. government's official web portal to all federal, state and local government web resources and services.